sensor_id;sensor_type;location;lat;lon;timestamp;P1;durP1;ratioP1;P2;durP2;ratioP2
10711;SDS011;5407;51.234;6.804;2023-02-28T00:01:04;1.55;;;1.45;;
10711;SDS011;5407;51.234;6.804;2023-02-28T00:03:31;1.63;;;1.50;;
10711;SDS011;5407;51.234;6.804;2023-02-28T00:06:00;1.60;;;1.50;;
10711;SDS011;5407;51.234;6.804;2023-02-28T00:08:27;1.60;;;1.50;;
10711;SDS011;5407;51.234;6.804;2023-02-28T00:10:56;1.80;;;1.70;;
10711;SDS011;5407;51.234;6.804;2023-02-28T00:13:22;1.50;;;1.40;;
10711;SDS011;5407;51.234;6.804;2023-02-28T00:15:58;1.33;;;1.23;;
10711;SDS011;5407;51.234;6.804;2023-02-28T00:18:25;1.48;;;1.38;;
10711;SDS011;5407;51.234;6.804;2023-02-28T00:20:52;1.85;;;1.50;;
10711;SDS011;5407;51.234;6.804;2023-02-28T00:23:19;1.85;;;1.60;;
10711;SDS011;5407;51.234;6.804;2023-02-28T00:25:46;1.55;;;1.45;;
10711;SDS011;5407;51.234;6.804;2023-02-28T00:28:14;1.65;;;1.50;;
10711;SDS011;5407;51.234;6.804;2023-02-28T00:30:41;1.65;;;1.55;;
10711;SDS011;5407;51.234;6.804;2023-02-28T00:33:08;1.45;;;1.35;;
10711;SDS011;5407;51.234;6.804;2023-02-28T00:35:35;1.58;;;1.48;;
10711;SDS011;5407;51.234;6.804;2023-02-28T00:38:02;1.60;;;1.50;;
10711;SDS011;5407;51.234;6.804;2023-02-28T00:40:29;1.30;;;1.20;;
10711;SDS011;5407;51.234;6.804;2023-02-28T00:42:57;1.48;;;1.38;;
10711;SDS011;5407;51.234;6.804;2023-02-28T00:45:25;1.58;;;1.48;;
10711;SDS011;5407;51.234;6.804;2023-02-28T00:47:52;1.58;;;1.48;;
10711;SDS011;5407;51.234;6.804;2023-02-28T00:50:19;1.52;;;1.42;;
10711;SDS011;5407;51.234;6.804;2023-02-28T00:52:46;1.52;;;1.42;;
10711;SDS011;5407;51.234;6.804;2023-02-28T00:55:13;1.40;;;1.30;;
10711;SDS011;5407;51.234;6.804;2023-02-28T00:57:40;1.50;;;1.40;;
10711;SDS011;5407;51.234;6.804;2023-02-28T01:00:09;1.67;;;1.30;;
10711;SDS011;5407;51.234;6.804;2023-02-28T01:02:37;1.40;;;1.30;;
10711;SDS011;5407;51.234;6.804;2023-02-28T01:05:05;1.42;;;1.33;;
10711;SDS011;5407;51.234;6.804;2023-02-28T01:07:32;1.38;;;1.27;;
10711;SDS011;5407;51.234;6.804;2023-02-28T01:09:59;1.40;;;1.30;;
10711;SDS011;5407;51.234;6.804;2023-02-28T01:12:25;1.30;;;1.20;;
10711;SDS011;5407;51.234;6.804;2023-02-28T01:14:52;1.58;;;1.45;;
10711;SDS011;5407;51.234;6.804;2023-02-28T01:17:20;1.58;;;1.48;;
10711;SDS011;5407;51.234;6.804;2023-02-28T01:19:49;1.38;;;1.27;;
10711;SDS011;5407;51.234;6.804;2023-02-28T01:22:15;1.40;;;1.30;;
10711;SDS011;5407;51.234;6.804;2023-02-28T01:24:42;1.45;;;1.35;;
10711;SDS011;5407;51.234;6.804;2023-02-28T01:27:11;1.33;;;1.23;;
10711;SDS011;5407;51.234;6.804;2023-02-28T01:29:38;1.50;;;1.40;;
10711;SDS011;5407;51.234;6.804;2023-02-28T01:32:05;1.50;;;1.33;;
10711;SDS011;5407;51.234;6.804;2023-02-28T01:34:34;1.38;;;1.27;;
10711;SDS011;5407;51.234;6.804;2023-02-28T01:37:04;1.00;;;1.00;;
10711;SDS011;5407;51.234;6.804;2023-02-28T01:39:31;1.40;;;1.30;;
10711;SDS011;5407;51.234;6.804;2023-02-28T01:41:57;1.45;;;1.35;;
10711;SDS011;5407;51.234;6.804;2023-02-28T01:47:28;1.45;;;1.35;;
10711;SDS011;5407;51.234;6.804;2023-02-28T01:49:58;1.30;;;1.20;;
10711;SDS011;5407;51.234;6.804;2023-02-28T01:52:30;1.40;;;1.30;;
10711;SDS011;5407;51.234;6.804;2023-02-28T01:54:59;1.33;;;1.23;;
10711;SDS011;5407;51.234;6.804;2023-02-28T01:57:29;1.23;;;1.13;;
10711;SDS011;5407;51.234;6.804;2023-02-28T02:00:05;1.35;;;1.25;;
10711;SDS011;5407;51.234;6.804;2023-02-28T02:02:45;1.48;;;1.38;;
10711;SDS011;5407;51.234;6.804;2023-02-28T02:05:16;1.73;;;1.40;;
10711;SDS011;5407;51.234;6.804;2023-02-28T02:07:48;2.17;;;1.35;;
10711;SDS011;5407;51.234;6.804;2023-02-28T02:10:20;1.40;;;1.27;;
10711;SDS011;5407;51.234;6.804;2023-02-28T02:16:11;1.48;;;1.30;;
10711;SDS011;5407;51.234;6.804;2023-02-28T02:18:55;1.20;;;1.10;;
10711;SDS011;5407;51.234;6.804;2023-02-28T02:21:38;1.30;;;1.20;;
10711;SDS011;5407;51.234;6.804;2023-02-28T02:24:46;1.40;;;1.30;;
10711;SDS011;5407;51.234;6.804;2023-02-28T02:27:37;1.20;;;1.10;;
10711;SDS011;5407;51.234;6.804;2023-02-28T02:30:18;1.30;;;1.20;;
10711;SDS011;5407;51.234;6.804;2023-02-28T02:33:22;1.35;;;1.25;;
10711;SDS011;5407;51.234;6.804;2023-02-28T02:36:05;1.40;;;1.30;;
10711;SDS011;5407;51.234;6.804;2023-02-28T02:38:39;1.50;;;1.40;;
10711;SDS011;5407;51.234;6.804;2023-02-28T02:41:16;1.50;;;1.40;;
10711;SDS011;5407;51.234;6.804;2023-02-28T02:43:46;1.40;;;1.30;;
10711;SDS011;5407;51.234;6.804;2023-02-28T02:46:17;1.40;;;1.30;;
10711;SDS011;5407;51.234;6.804;2023-02-28T02:48:47;1.40;;;1.30;;
10711;SDS011;5407;51.234;6.804;2023-02-28T02:51:17;1.65;;;1.40;;
10711;SDS011;5407;51.234;6.804;2023-02-28T02:53:48;1.50;;;1.40;;
10711;SDS011;5407;51.234;6.804;2023-02-28T02:56:17;1.50;;;1.40;;
10711;SDS011;5407;51.234;6.804;2023-02-28T02:58:47;1.73;;;1.40;;
10711;SDS011;5407;51.234;6.804;2023-02-28T03:01:18;1.60;;;1.50;;
10711;SDS011;5407;51.234;6.804;2023-02-28T03:03:54;1.50;;;1.40;;
10711;SDS011;5407;51.234;6.804;2023-02-28T03:06:25;1.70;;;1.60;;
10711;SDS011;5407;51.234;6.804;2023-02-28T03:08:52;1.55;;;1.45;;
10711;SDS011;5407;51.234;6.804;2023-02-28T03:11:21;1.27;;;1.20;;
10711;SDS011;5407;51.234;6.804;2023-02-28T03:13:54;1.40;;;1.30;;
10711;SDS011;5407;51.234;6.804;2023-02-28T03:16:50;1.50;;;1.30;;
10711;SDS011;5407;51.234;6.804;2023-02-28T03:22:27;1.60;;;1.50;;
10711;SDS011;5407;51.234;6.804;2023-02-28T03:25:20;1.30;;;1.20;;
10711;SDS011;5407;51.234;6.804;2023-02-28T03:27:59;1.55;;;1.45;;
10711;SDS011;5407;51.234;6.804;2023-02-28T03:30:33;1.60;;;1.50;;
10711;SDS011;5407;51.234;6.804;2023-02-28T03:33:06;1.38;;;1.27;;
10711;SDS011;5407;51.234;6.804;2023-02-28T03:35:38;1.85;;;1.50;;
10711;SDS011;5407;51.234;6.804;2023-02-28T03:38:10;1.58;;;1.48;;
10711;SDS011;5407;51.234;6.804;2023-02-28T03:40:42;1.40;;;1.30;;
10711;SDS011;5407;51.234;6.804;2023-02-28T03:43:14;1.40;;;1.30;;
10711;SDS011;5407;51.234;6.804;2023-02-28T03:45:48;1.40;;;1.30;;
10711;SDS011;5407;51.234;6.804;2023-02-28T03:48:18;1.30;;;1.20;;
10711;SDS011;5407;51.234;6.804;2023-02-28T03:50:49;1.15;;;1.10;;
10711;SDS011;5407;51.234;6.804;2023-02-28T03:53:22;1.40;;;1.30;;
10711;SDS011;5407;51.234;6.804;2023-02-28T03:55:54;1.33;;;1.23;;
10711;SDS011;5407;51.234;6.804;2023-02-28T03:58:27;1.50;;;1.40;;
10711;SDS011;5407;51.234;6.804;2023-02-28T04:01:00;1.40;;;1.30;;
10711;SDS011;5407;51.234;6.804;2023-02-28T04:03:34;1.50;;;1.40;;
10711;SDS011;5407;51.234;6.804;2023-02-28T04:06:00;1.63;;;1.15;;
10711;SDS011;5407;51.234;6.804;2023-02-28T04:08:29;1.58;;;1.30;;
10711;SDS011;5407;51.234;6.804;2023-02-28T04:10:58;1.42;;;1.33;;
10711;SDS011;5407;51.234;6.804;2023-02-28T04:13:27;1.55;;;1.30;;
10711;SDS011;5407;51.234;6.804;2023-02-28T04:15:53;1.40;;;1.30;;
10711;SDS011;5407;51.234;6.804;2023-02-28T04:18:20;1.60;;;1.50;;
10711;SDS011;5407;51.234;6.804;2023-02-28T04:20:46;1.75;;;1.20;;
10711;SDS011;5407;51.234;6.804;2023-02-28T04:23:13;1.50;;;1.40;;
10711;SDS011;5407;51.234;6.804;2023-02-28T04:25:42;1.60;;;1.40;;
10711;SDS011;5407;51.234;6.804;2023-02-28T04:28:08;1.45;;;1.35;;
10711;SDS011;5407;51.234;6.804;2023-02-28T04:30:37;1.20;;;1.10;;
10711;SDS011;5407;51.234;6.804;2023-02-28T04:33:04;1.48;;;1.38;;
10711;SDS011;5407;51.234;6.804;2023-02-28T04:35:31;1.50;;;1.40;;
10711;SDS011;5407;51.234;6.804;2023-02-28T04:37:58;1.30;;;1.20;;
10711;SDS011;5407;51.234;6.804;2023-02-28T04:40:25;1.90;;;1.40;;
10711;SDS011;5407;51.234;6.804;2023-02-28T04:42:53;1.48;;;1.10;;
10711;SDS011;5407;51.234;6.804;2023-02-28T04:45:20;1.42;;;1.23;;
10711;SDS011;5407;51.234;6.804;2023-02-28T04:47:47;1.65;;;1.30;;
10711;SDS011;5407;51.234;6.804;2023-02-28T04:50:14;1.30;;;1.20;;
10711;SDS011;5407;51.234;6.804;2023-02-28T04:52:41;1.17;;;1.10;;
10711;SDS011;5407;51.234;6.804;2023-02-28T04:55:08;1.40;;;1.30;;
10711;SDS011;5407;51.234;6.804;2023-02-28T04:57:35;1.17;;;1.08;;
10711;SDS011;5407;51.234;6.804;2023-02-28T05:00:04;1.10;;;1.10;;
10711;SDS011;5407;51.234;6.804;2023-02-28T05:02:36;1.92;;;1.40;;
10711;SDS011;5407;51.234;6.804;2023-02-28T05:05:03;1.15;;;1.05;;
10711;SDS011;5407;51.234;6.804;2023-02-28T05:07:30;1.10;;;1.00;;
10711;SDS011;5407;51.234;6.804;2023-02-28T05:09:57;1.20;;;1.10;;
10711;SDS011;5407;51.234;6.804;2023-02-28T05:12:24;1.10;;;1.00;;
10711;SDS011;5407;51.234;6.804;2023-02-28T05:14:51;1.45;;;1.25;;
10711;SDS011;5407;51.234;6.804;2023-02-28T05:17:19;1.10;;;1.05;;
10711;SDS011;5407;51.234;6.804;2023-02-28T05:19:46;1.30;;;1.20;;
10711;SDS011;5407;51.234;6.804;2023-02-28T05:22:13;1.10;;;1.00;;
10711;SDS011;5407;51.234;6.804;2023-02-28T05:24:41;1.17;;;1.10;;
10711;SDS011;5407;51.234;6.804;2023-02-28T05:27:08;1.38;;;1.02;;
10711;SDS011;5407;51.234;6.804;2023-02-28T05:29:35;1.10;;;1.10;;
10711;SDS011;5407;51.234;6.804;2023-02-28T05:32:08;1.30;;;1.20;;
10711;SDS011;5407;51.234;6.804;2023-02-28T05:34:37;1.20;;;1.10;;
10711;SDS011;5407;51.234;6.804;2023-02-28T05:37:04;1.25;;;1.15;;
10711;SDS011;5407;51.234;6.804;2023-02-28T05:39:32;1.40;;;1.30;;
10711;SDS011;5407;51.234;6.804;2023-02-28T05:41:59;1.15;;;1.10;;
10711;SDS011;5407;51.234;6.804;2023-02-28T05:44:26;0.95;;;0.95;;
10711;SDS011;5407;51.234;6.804;2023-02-28T05:46:52;1.15;;;1.10;;
10711;SDS011;5407;51.234;6.804;2023-02-28T05:49:19;1.15;;;1.13;;
10711;SDS011;5407;51.234;6.804;2023-02-28T05:51:47;0.95;;;0.95;;
10711;SDS011;5407;51.234;6.804;2023-02-28T05:54:14;1.23;;;1.20;;
10711;SDS011;5407;51.234;6.804;2023-02-28T05:56:41;1.00;;;1.00;;
10711;SDS011;5407;51.234;6.804;2023-02-28T05:59:09;1.20;;;1.10;;
10711;SDS011;5407;51.234;6.804;2023-02-28T06:01:36;0.95;;;0.90;;
10711;SDS011;5407;51.234;6.804;2023-02-28T06:04:05;1.17;;;1.10;;
10711;SDS011;5407;51.234;6.804;2023-02-28T06:06:32;1.02;;;0.98;;
10711;SDS011;5407;51.234;6.804;2023-02-28T06:09:02;9.35;;;1.33;;
10711;SDS011;5407;51.234;6.804;2023-02-28T06:11:30;3.45;;;1.00;;
10711;SDS011;5407;51.234;6.804;2023-02-28T06:13:58;1.45;;;1.10;;
10711;SDS011;5407;51.234;6.804;2023-02-28T06:16:26;1.20;;;1.10;;
10711;SDS011;5407;51.234;6.804;2023-02-28T06:18:56;2.78;;;1.10;;
10711;SDS011;5407;51.234;6.804;2023-02-28T06:21:24;1.85;;;1.13;;
10711;SDS011;5407;51.234;6.804;2023-02-28T06:23:52;3.75;;;1.20;;
10711;SDS011;5407;51.234;6.804;2023-02-28T06:26:20;2.80;;;1.10;;
10711;SDS011;5407;51.234;6.804;2023-02-28T06:28:48;3.63;;;1.02;;
10711;SDS011;5407;51.234;6.804;2023-02-28T06:31:16;1.70;;;1.20;;
10711;SDS011;5407;51.234;6.804;2023-02-28T06:33:44;3.63;;;1.10;;
10711;SDS011;5407;51.234;6.804;2023-02-28T06:36:13;2.80;;;1.10;;
10711;SDS011;5407;51.234;6.804;2023-02-28T06:38:41;3.08;;;1.20;;
10711;SDS011;5407;51.234;6.804;2023-02-28T06:41:08;1.40;;;1.00;;
10711;SDS011;5407;51.234;6.804;2023-02-28T06:43:38;1.65;;;1.10;;
10711;SDS011;5407;51.234;6.804;2023-02-28T06:46:10;1.77;;;1.20;;
10711;SDS011;5407;51.234;6.804;2023-02-28T06:48:38;1.35;;;1.10;;
10711;SDS011;5407;51.234;6.804;2023-02-28T06:51:06;1.02;;;1.00;;
10711;SDS011;5407;51.234;6.804;2023-02-28T06:53:34;2.63;;;1.20;;
10711;SDS011;5407;51.234;6.804;2023-02-28T06:56:03;1.30;;;1.20;;
10711;SDS011;5407;51.234;6.804;2023-02-28T06:58:31;1.80;;;1.05;;
10711;SDS011;5407;51.234;6.804;2023-02-28T07:01:00;1.10;;;1.10;;
10711;SDS011;5407;51.234;6.804;2023-02-28T07:03:27;4.35;;;0.90;;
10711;SDS011;5407;51.234;6.804;2023-02-28T07:05:54;1.45;;;1.10;;
10711;SDS011;5407;51.234;6.804;2023-02-28T07:08:21;1.13;;;1.00;;
10711;SDS011;5407;51.234;6.804;2023-02-28T07:10:51;2.13;;;1.10;;
10711;SDS011;5407;51.234;6.804;2023-02-28T07:13:18;1.10;;;1.00;;
10711;SDS011;5407;51.234;6.804;2023-02-28T07:15:52;1.52;;;1.00;;
10711;SDS011;5407;51.234;6.804;2023-02-28T07:18:21;0.90;;;0.90;;
10711;SDS011;5407;51.234;6.804;2023-02-28T07:20:48;0.98;;;0.88;;
10711;SDS011;5407;51.234;6.804;2023-02-28T07:23:15;3.00;;;1.17;;
10711;SDS011;5407;51.234;6.804;2023-02-28T07:25:42;1.10;;;1.00;;
10711;SDS011;5407;51.234;6.804;2023-02-28T07:28:10;11.02;;;1.20;;
10711;SDS011;5407;51.234;6.804;2023-02-28T07:30:38;1.00;;;1.00;;
10711;SDS011;5407;51.234;6.804;2023-02-28T07:33:05;0.77;;;0.77;;
10711;SDS011;5407;51.234;6.804;2023-02-28T07:35:33;0.90;;;0.90;;
10711;SDS011;5407;51.234;6.804;2023-02-28T07:38:00;0.95;;;0.90;;
10711;SDS011;5407;51.234;6.804;2023-02-28T07:40:28;0.98;;;0.98;;
10711;SDS011;5407;51.234;6.804;2023-02-28T07:42:55;0.98;;;0.88;;
10711;SDS011;5407;51.234;6.804;2023-02-28T07:45:22;2.30;;;1.02;;
10711;SDS011;5407;51.234;6.804;2023-02-28T07:47:48;1.13;;;0.90;;
10711;SDS011;5407;51.234;6.804;2023-02-28T07:50:15;1.17;;;1.08;;
10711;SDS011;5407;51.234;6.804;2023-02-28T07:52:43;2.50;;;1.10;;
10711;SDS011;5407;51.234;6.804;2023-02-28T07:55:10;0.85;;;0.85;;
10711;SDS011;5407;51.234;6.804;2023-02-28T07:57:38;1.63;;;1.00;;
10711;SDS011;5407;51.234;6.804;2023-02-28T08:00:06;0.90;;;0.90;;
10711;SDS011;5407;51.234;6.804;2023-02-28T08:02:39;0.95;;;0.90;;
10711;SDS011;5407;51.234;6.804;2023-02-28T08:05:06;0.90;;;0.90;;
10711;SDS011;5407;51.234;6.804;2023-02-28T08:07:34;0.90;;;0.90;;
10711;SDS011;5407;51.234;6.804;2023-02-28T08:10:02;0.90;;;0.90;;
10711;SDS011;5407;51.234;6.804;2023-02-28T08:12:30;0.90;;;0.90;;
10711;SDS011;5407;51.234;6.804;2023-02-28T08:14:57;0.80;;;0.80;;
10711;SDS011;5407;51.234;6.804;2023-02-28T08:17:24;0.70;;;0.68;;
10711;SDS011;5407;51.234;6.804;2023-02-28T08:19:51;2.42;;;0.90;;
10711;SDS011;5407;51.234;6.804;2023-02-28T08:22:18;2.55;;;0.88;;
10711;SDS011;5407;51.234;6.804;2023-02-28T08:24:45;0.75;;;0.75;;
10711;SDS011;5407;51.234;6.804;2023-02-28T08:27:13;3.50;;;0.80;;
10711;SDS011;5407;51.234;6.804;2023-02-28T08:29:40;0.90;;;0.90;;
10711;SDS011;5407;51.234;6.804;2023-02-28T08:32:07;1.20;;;0.75;;
10711;SDS011;5407;51.234;6.804;2023-02-28T08:34:34;0.80;;;0.80;;
10711;SDS011;5407;51.234;6.804;2023-02-28T08:37:00;0.90;;;0.90;;
10711;SDS011;5407;51.234;6.804;2023-02-28T08:39:27;0.95;;;0.90;;
10711;SDS011;5407;51.234;6.804;2023-02-28T08:41:54;1.25;;;0.90;;
10711;SDS011;5407;51.234;6.804;2023-02-28T08:44:22;12.10;;;1.35;;
10711;SDS011;5407;51.234;6.804;2023-02-28T08:46:49;3.78;;;0.75;;
10711;SDS011;5407;51.234;6.804;2023-02-28T08:49:16;4.82;;;0.98;;
10711;SDS011;5407;51.234;6.804;2023-02-28T08:51:43;2.85;;;1.10;;
10711;SDS011;5407;51.234;6.804;2023-02-28T08:54:10;1.48;;;0.90;;
10711;SDS011;5407;51.234;6.804;2023-02-28T08:56:38;3.15;;;0.82;;
10711;SDS011;5407;51.234;6.804;2023-02-28T08:59:05;1.48;;;1.00;;
10711;SDS011;5407;51.234;6.804;2023-02-28T09:01:33;2.30;;;0.90;;
10711;SDS011;5407;51.234;6.804;2023-02-28T09:04:01;1.00;;;0.80;;
10711;SDS011;5407;51.234;6.804;2023-02-28T09:06:28;4.03;;;1.00;;
10711;SDS011;5407;51.234;6.804;2023-02-28T09:08:56;0.80;;;0.80;;
10711;SDS011;5407;51.234;6.804;2023-02-28T09:11:24;2.13;;;1.08;;
10711;SDS011;5407;51.234;6.804;2023-02-28T09:13:51;2.22;;;0.80;;
10711;SDS011;5407;51.234;6.804;2023-02-28T09:16:18;0.80;;;0.80;;
10711;SDS011;5407;51.234;6.804;2023-02-28T09:18:47;1.60;;;1.10;;
10711;SDS011;5407;51.234;6.804;2023-02-28T09:21:15;1.15;;;0.75;;
10711;SDS011;5407;51.234;6.804;2023-02-28T09:23:43;1.95;;;1.02;;
10711;SDS011;5407;51.234;6.804;2023-02-28T09:26:13;1.48;;;0.80;;
10711;SDS011;5407;51.234;6.804;2023-02-28T09:28:40;1.58;;;0.82;;
10711;SDS011;5407;51.234;6.804;2023-02-28T09:31:10;0.60;;;0.60;;
10711;SDS011;5407;51.234;6.804;2023-02-28T09:33:39;0.80;;;0.80;;
10711;SDS011;5407;51.234;6.804;2023-02-28T09:36:08;5.97;;;1.00;;
10711;SDS011;5407;51.234;6.804;2023-02-28T09:38:35;5.35;;;1.00;;
10711;SDS011;5407;51.234;6.804;2023-02-28T09:41:02;1.33;;;0.80;;
10711;SDS011;5407;51.234;6.804;2023-02-28T09:43:37;1.88;;;0.90;;
10711;SDS011;5407;51.234;6.804;2023-02-28T09:46:08;2.35;;;1.00;;
10711;SDS011;5407;51.234;6.804;2023-02-28T09:48:44;3.13;;;0.80;;
10711;SDS011;5407;51.234;6.804;2023-02-28T09:51:16;3.70;;;0.80;;
10711;SDS011;5407;51.234;6.804;2023-02-28T09:53:55;1.45;;;0.85;;
10711;SDS011;5407;51.234;6.804;2023-02-28T09:56:24;2.35;;;0.98;;
10711;SDS011;5407;51.234;6.804;2023-02-28T09:58:54;2.15;;;0.88;;
10711;SDS011;5407;51.234;6.804;2023-02-28T10:01:25;1.00;;;0.90;;
10711;SDS011;5407;51.234;6.804;2023-02-28T10:03:56;1.65;;;0.90;;
10711;SDS011;5407;51.234;6.804;2023-02-28T10:06:29;1.80;;;0.70;;
10711;SDS011;5407;51.234;6.804;2023-02-28T10:09:04;3.25;;;0.90;;
10711;SDS011;5407;51.234;6.804;2023-02-28T10:11:38;1.00;;;0.90;;
10711;SDS011;5407;51.234;6.804;2023-02-28T10:14:10;1.77;;;0.90;;
10711;SDS011;5407;51.234;6.804;2023-02-28T10:16:41;1.38;;;0.70;;
10711;SDS011;5407;51.234;6.804;2023-02-28T10:19:13;1.13;;;0.80;;
10711;SDS011;5407;51.234;6.804;2023-02-28T10:21:49;0.70;;;0.70;;
10711;SDS011;5407;51.234;6.804;2023-02-28T10:24:25;1.90;;;1.00;;
10711;SDS011;5407;51.234;6.804;2023-02-28T10:26:56;1.08;;;0.90;;
10711;SDS011;5407;51.234;6.804;2023-02-28T10:29:26;2.42;;;1.00;;
10711;SDS011;5407;51.234;6.804;2023-02-28T10:31:55;0.70;;;0.65;;
10711;SDS011;5407;51.234;6.804;2023-02-28T10:34:22;1.73;;;0.90;;
10711;SDS011;5407;51.234;6.804;2023-02-28T10:36:50;1.10;;;0.90;;
10711;SDS011;5407;51.234;6.804;2023-02-28T10:39:34;1.15;;;0.80;;
10711;SDS011;5407;51.234;6.804;2023-02-28T10:42:03;0.70;;;0.70;;
10711;SDS011;5407;51.234;6.804;2023-02-28T10:44:30;1.10;;;1.00;;
10711;SDS011;5407;51.234;6.804;2023-02-28T10:46:57;2.25;;;0.90;;
10711;SDS011;5407;51.234;6.804;2023-02-28T10:49:25;1.33;;;0.80;;
10711;SDS011;5407;51.234;6.804;2023-02-28T10:51:56;1.08;;;1.00;;
10711;SDS011;5407;51.234;6.804;2023-02-28T10:54:27;1.23;;;1.08;;
10711;SDS011;5407;51.234;6.804;2023-02-28T10:57:07;1.23;;;1.13;;
10711;SDS011;5407;51.234;6.804;2023-02-28T10:59:41;4.32;;;1.23;;
10711;SDS011;5407;51.234;6.804;2023-02-28T11:02:29;3.72;;;1.30;;
10711;SDS011;5407;51.234;6.804;2023-02-28T11:04:58;2.40;;;1.42;;
10711;SDS011;5407;51.234;6.804;2023-02-28T11:07:27;1.85;;;1.42;;
10711;SDS011;5407;51.234;6.804;2023-02-28T11:09:54;6.05;;;1.60;;
10711;SDS011;5407;51.234;6.804;2023-02-28T11:12:23;11.75;;;1.70;;
10711;SDS011;5407;51.234;6.804;2023-02-28T11:14:54;4.28;;;1.52;;
10711;SDS011;5407;51.234;6.804;2023-02-28T11:17:25;9.20;;;1.60;;
10711;SDS011;5407;51.234;6.804;2023-02-28T11:19:55;8.65;;;1.40;;
10711;SDS011;5407;51.234;6.804;2023-02-28T11:22:24;5.70;;;1.58;;
10711;SDS011;5407;51.234;6.804;2023-02-28T11:24:56;3.55;;;1.38;;
10711;SDS011;5407;51.234;6.804;2023-02-28T11:27:26;2.20;;;1.40;;
10711;SDS011;5407;51.234;6.804;2023-02-28T11:30:25;5.85;;;1.83;;
10711;SDS011;5407;51.234;6.804;2023-02-28T11:32:54;3.10;;;1.30;;
10711;SDS011;5407;51.234;6.804;2023-02-28T11:35:23;3.03;;;1.50;;
10711;SDS011;5407;51.234;6.804;2023-02-28T11:37:53;3.67;;;1.40;;
10711;SDS011;5407;51.234;6.804;2023-02-28T11:40:22;2.03;;;1.50;;
10711;SDS011;5407;51.234;6.804;2023-02-28T11:43:07;3.78;;;1.48;;
10711;SDS011;5407;51.234;6.804;2023-02-28T11:45:55;6.53;;;1.55;;
10711;SDS011;5407;51.234;6.804;2023-02-28T11:48:34;2.75;;;1.38;;
10711;SDS011;5407;51.234;6.804;2023-02-28T11:51:14;1.40;;;1.10;;
10711;SDS011;5407;51.234;6.804;2023-02-28T11:56:48;4.07;;;1.50;;
10711;SDS011;5407;51.234;6.804;2023-02-28T11:59:29;2.67;;;1.10;;
10711;SDS011;5407;51.234;6.804;2023-02-28T12:02:20;2.08;;;1.27;;
10711;SDS011;5407;51.234;6.804;2023-02-28T12:04:59;2.05;;;1.05;;
10711;SDS011;5407;51.234;6.804;2023-02-28T12:07:39;2.55;;;1.10;;
10711;SDS011;5407;51.234;6.804;2023-02-28T12:10:18;2.60;;;0.95;;
10711;SDS011;5407;51.234;6.804;2023-02-28T12:12:50;1.50;;;1.00;;
10711;SDS011;5407;51.234;6.804;2023-02-28T12:15:42;1.52;;;1.10;;
10711;SDS011;5407;51.234;6.804;2023-02-28T12:18:24;1.65;;;1.20;;
10711;SDS011;5407;51.234;6.804;2023-02-28T12:21:04;1.23;;;1.13;;
10711;SDS011;5407;51.234;6.804;2023-02-28T12:23:42;1.23;;;1.10;;
10711;SDS011;5407;51.234;6.804;2023-02-28T12:26:21;1.58;;;0.90;;
10711;SDS011;5407;51.234;6.804;2023-02-28T12:28:59;1.50;;;1.13;;
10711;SDS011;5407;51.234;6.804;2023-02-28T12:31:32;2.28;;;1.10;;
10711;SDS011;5407;51.234;6.804;2023-02-28T12:34:03;2.15;;;1.15;;
10711;SDS011;5407;51.234;6.804;2023-02-28T12:36:34;1.52;;;1.13;;
10711;SDS011;5407;51.234;6.804;2023-02-28T12:39:04;1.67;;;1.10;;
10711;SDS011;5407;51.234;6.804;2023-02-28T12:41:39;2.45;;;1.00;;
10711;SDS011;5407;51.234;6.804;2023-02-28T12:44:09;1.00;;;1.00;;
10711;SDS011;5407;51.234;6.804;2023-02-28T12:46:41;1.25;;;1.00;;
10711;SDS011;5407;51.234;6.804;2023-02-28T12:49:12;1.42;;;1.10;;
10711;SDS011;5407;51.234;6.804;2023-02-28T12:51:42;1.80;;;1.00;;
10711;SDS011;5407;51.234;6.804;2023-02-28T12:54:12;2.20;;;1.10;;
10711;SDS011;5407;51.234;6.804;2023-02-28T12:56:49;0.90;;;0.90;;
10711;SDS011;5407;51.234;6.804;2023-02-28T12:59:23;1.27;;;1.20;;
10711;SDS011;5407;51.234;6.804;2023-02-28T13:02:00;1.23;;;1.13;;
10711;SDS011;5407;51.234;6.804;2023-02-28T13:04:46;0.80;;;0.80;;
10711;SDS011;5407;51.234;6.804;2023-02-28T13:07:43;0.90;;;0.90;;
10711;SDS011;5407;51.234;6.804;2023-02-28T13:10:33;1.25;;;1.00;;
10711;SDS011;5407;51.234;6.804;2023-02-28T13:13:10;1.25;;;1.10;;
10711;SDS011;5407;51.234;6.804;2023-02-28T13:15:41;1.35;;;1.20;;
10711;SDS011;5407;51.234;6.804;2023-02-28T13:18:34;1.05;;;0.95;;
10711;SDS011;5407;51.234;6.804;2023-02-28T13:21:05;1.10;;;1.05;;
10711;SDS011;5407;51.234;6.804;2023-02-28T13:29:38;1.38;;;0.95;;
10711;SDS011;5407;51.234;6.804;2023-02-28T13:44:02;1.00;;;1.00;;
10711;SDS011;5407;51.234;6.804;2023-02-28T13:46:32;1.40;;;1.30;;
10711;SDS011;5407;51.234;6.804;2023-02-28T13:49:19;4.03;;;1.45;;
10711;SDS011;5407;51.234;6.804;2023-02-28T13:51:51;3.20;;;1.30;;
10711;SDS011;5407;51.234;6.804;2023-02-28T13:54:24;1.83;;;1.27;;
10711;SDS011;5407;51.234;6.804;2023-02-28T13:57:06;1.70;;;1.27;;
10711;SDS011;5407;51.234;6.804;2023-02-28T13:59:45;2.05;;;1.00;;
10711;SDS011;5407;51.234;6.804;2023-02-28T14:02:32;1.20;;;1.10;;
10711;SDS011;5407;51.234;6.804;2023-02-28T14:05:09;3.03;;;1.00;;
10711;SDS011;5407;51.234;6.804;2023-02-28T14:07:42;2.13;;;1.10;;
10711;SDS011;5407;51.234;6.804;2023-02-28T14:10:20;4.22;;;1.20;;
10711;SDS011;5407;51.234;6.804;2023-02-28T14:12:54;1.10;;;1.00;;
10711;SDS011;5407;51.234;6.804;2023-02-28T14:15:49;1.48;;;1.00;;
10711;SDS011;5407;51.234;6.804;2023-02-28T14:18:25;1.08;;;0.98;;
10711;SDS011;5407;51.234;6.804;2023-02-28T14:20:56;1.08;;;1.08;;
10711;SDS011;5407;51.234;6.804;2023-02-28T14:23:43;0.90;;;0.90;;
10711;SDS011;5407;51.234;6.804;2023-02-28T14:26:33;0.80;;;0.70;;
10711;SDS011;5407;51.234;6.804;2023-02-28T14:29:27;1.58;;;1.00;;
10711;SDS011;5407;51.234;6.804;2023-02-28T14:32:05;0.90;;;0.90;;
10711;SDS011;5407;51.234;6.804;2023-02-28T14:34:42;3.53;;;3.22;;
10711;SDS011;5407;51.234;6.804;2023-02-28T14:37:19;6.32;;;5.47;;
10711;SDS011;5407;51.234;6.804;2023-02-28T14:39:51;9.23;;;7.63;;
10711;SDS011;5407;51.234;6.804;2023-02-28T14:42:28;9.07;;;7.20;;
10711;SDS011;5407;51.234;6.804;2023-02-28T14:44:56;6.80;;;5.68;;
10711;SDS011;5407;51.234;6.804;2023-02-28T14:47:25;5.63;;;4.95;;
10711;SDS011;5407;51.234;6.804;2023-02-28T14:49:56;5.75;;;4.40;;
10711;SDS011;5407;51.234;6.804;2023-02-28T14:52:24;4.95;;;3.25;;
10711;SDS011;5407;51.234;6.804;2023-02-28T14:54:55;3.92;;;3.25;;
10711;SDS011;5407;51.234;6.804;2023-02-28T14:57:24;3.00;;;2.70;;
10711;SDS011;5407;51.234;6.804;2023-02-28T14:59:59;2.70;;;2.40;;
10711;SDS011;5407;51.234;6.804;2023-02-28T15:02:30;2.25;;;2.05;;
10711;SDS011;5407;51.234;6.804;2023-02-28T15:05:02;2.25;;;1.83;;
10711;SDS011;5407;51.234;6.804;2023-02-28T15:07:46;2.40;;;2.10;;
10711;SDS011;5407;51.234;6.804;2023-02-28T15:10:16;2.35;;;1.63;;
10711;SDS011;5407;51.234;6.804;2023-02-28T15:12:47;1.58;;;1.48;;
10711;SDS011;5407;51.234;6.804;2023-02-28T15:15:18;2.10;;;1.40;;
10711;SDS011;5407;51.234;6.804;2023-02-28T15:17:48;1.30;;;1.20;;
10711;SDS011;5407;51.234;6.804;2023-02-28T15:20:19;1.20;;;1.10;;
10711;SDS011;5407;51.234;6.804;2023-02-28T15:22:47;1.50;;;1.40;;
10711;SDS011;5407;51.234;6.804;2023-02-28T15:25:19;1.48;;;1.38;;
10711;SDS011;5407;51.234;6.804;2023-02-28T15:27:49;1.30;;;1.20;;
10711;SDS011;5407;51.234;6.804;2023-02-28T15:30:18;1.15;;;1.05;;
10711;SDS011;5407;51.234;6.804;2023-02-28T15:33:01;2.53;;;1.30;;
10711;SDS011;5407;51.234;6.804;2023-02-28T15:35:45;1.42;;;1.15;;
10711;SDS011;5407;51.234;6.804;2023-02-28T15:38:14;1.20;;;1.20;;
10711;SDS011;5407;51.234;6.804;2023-02-28T15:40:43;1.20;;;1.10;;
10711;SDS011;5407;51.234;6.804;2023-02-28T15:43:19;1.30;;;1.20;;
10711;SDS011;5407;51.234;6.804;2023-02-28T15:45:51;1.00;;;1.00;;
10711;SDS011;5407;51.234;6.804;2023-02-28T15:48:20;1.38;;;1.10;;
10711;SDS011;5407;51.234;6.804;2023-02-28T15:50:51;0.82;;;0.82;;
10711;SDS011;5407;51.234;6.804;2023-02-28T15:53:21;1.63;;;1.30;;
10711;SDS011;5407;51.234;6.804;2023-02-28T15:55:58;5.28;;;3.10;;